Airfield :
LOGIN :

Register | Disclaimer

   EN    FR    IT 

 










Legend :    VFR   Marginal VFR   IFR   Intensive IFR   Very Intensive IFR
Visi :
Ceiling :
>= 8 km
>= 3000ft
5 to 8 km
1000 to 3000 ft
1500m to 5 km
500 to 1000 ft
800 to 1500m
200 to 500 ft
< 800m
< 200 ft
Symbols :   Thunderstorms  Fog  Heavy snow  Heavy precipitations  Wind > 20 kt
SIGMETs :     Misc.  Thunderstorms  Icing  Turbulence  Mountain Waves  Volcanic Ashes






- Airport Elevation : 2001 ft
- IATA code : MAD


LEMD - Madrid

CURRENT METAR :
  • 170230Z 21001KT 9999 BKN075 14/11 Q1019 NOSIG

EXPIRED METARs :
  • 170200Z 21002KT 9999 BKN075 15/11 Q1019 NOSIG
  • 170130Z 21004KT 9999 BKN080 15/11 Q1019 NOSIG
  • 170100Z 00000KT 9999 BKN080 14/11 Q1019 NOSIG
  • 170030Z 22002KT 9999 FEW050 SCT077 15/11 Q1019 NOSIG
  • 170000Z 22002KT 9999 -DZ BKN077 15/11 Q1019 NOSIG

TAF TAF LEMD
Valid from the 17 at 00:00 until the 18 at 06:00 UTC


162300Z 1700/1806 VRB04KT CAVOK TX25/1714Z TN10/1706Z
PROB30
TEMPO 1712/1718 23010KT



MET'MAP, your aeronautical weather chart ! - Copyright ORBIFLY December 2007 - Disclaimer

ORBIFLY MET'MAP TEAM :

Programming & Development : Alexandra Zaïnal
Concept & original design : Baudouin d'Aumeries
Assistance for programming : Marc-Olivier Méhu
Technical & hardware support : Manuel Goepfert

Contact : metmap@orbifly.com




SOURCES & CREDITS :

   NOAA